Time;durP1;ratioP1;P1;durP2;ratioP2;P2;SDS_P1;SDS_P2;PMS_P1;PMS_P2;Temp;Humidity;BMP_temperature;BMP_pressure;BME280_temperature;BME280_humidity;BME280_pressure;Samples;Min_cycle;Max_cycle;Signal;HPM_P1;HPM_P2
2022/08/25 00:01:33;;;;;;;;;;;21.50;78.90;;;;;;5033151;28;19946;-96
2022/08/25 00:03:59;;;;;;;;;;;21.60;78.50;;;;;;5051733;28;19943;-96
2022/08/25 00:06:25;;;;;;;;;;;21.70;78.30;;;;;;5033601;28;19940;-96
2022/08/25 00:08:51;;;;;;;;;;;21.60;78.40;;;;;;5033556;28;19984;-96
2022/08/25 00:11:18;;;;;;;;;;;21.60;78.70;;;;;;5051793;28;19937;-95
2022/08/25 00:13:45;;;;;;;;;;;21.40;78.90;;;;;;5052284;28;19963;-96
2022/08/25 00:16:12;;;;;;;;;;;21.40;79.80;;;;;;5051296;28;19988;-96
2022/08/25 00:18:39;;;;;;;;;;;21.40;79.40;;;;;;5052355;28;19937;-95
2022/08/25 00:21:05;;;;;;;;;;;21.50;79.10;;;;;;5053392;28;19939;-96
2022/08/25 00:23:31;;;;;;;;;;;21.60;78.90;;;;;;5035895;28;19939;-96
2022/08/25 00:25:57;;;;;;;;;;;21.50;78.50;;;;;;5034410;28;19987;-96
2022/08/25 00:28:23;;;;;;;;;;;21.50;77.70;;;;;;5050942;28;19942;-96
2022/08/25 00:30:49;;;;;;;;;;;21.40;78.40;;;;;;5032872;28;20441;-96
2022/08/25 00:33:15;;;;;;;;;;;21.40;77.40;;;;;;5032307;28;19972;-96
2022/08/25 00:35:42;;;;;;;;;;;21.50;78.50;;;;;;5035047;28;19944;-96
2022/08/25 00:38:08;;;;;;;;;;;21.40;78.50;;;;;;5069231;28;19939;-96
2022/08/25 00:40:35;;;;;;;;;;;21.40;76.60;;;;;;5068311;28;20002;-96
2022/08/25 00:43:01;;;;;;;;;;;21.30;77.70;;;;;;5068261;28;19947;-96
2022/08/25 00:45:27;;;;;;;;;;;21.30;79.00;;;;;;5069215;28;19936;-96
2022/08/25 00:47:53;;;;;;;;;;;21.30;79.80;;;;;;5064462;28;19984;-96
2022/08/25 00:50:21;;;;;;;;;;;21.30;79.90;;;;;;5031623;28;19946;-96
2022/08/25 00:52:49;;;;;;;;;;;21.30;79.10;;;;;;5047969;28;19961;-96
2022/08/25 00:55:20;;;;;;;;;;;21.20;79.40;;;;;;5030441;28;19946;-96
2022/08/25 00:57:50;;;;;;;;;;;21.20;78.80;;;;;;5047678;28;20454;-96
2022/08/25 01:00:24;;;;;;;;;;;21.20;79.10;;;;;;5048319;28;19941;-96
2022/08/25 01:02:49;;;;;;;;;;;21.10;80.70;;;;;;5049410;28;20378;-96
2022/08/25 01:05:16;;;;;;;;;;;21.00;80.70;;;;;;5028882;28;19948;-96
2022/08/25 01:07:42;;;;;;;;;;;21.00;80.70;;;;;;5047276;28;19943;-96
2022/08/25 01:10:09;;;;;;;;;;;21.00;80.70;;;;;;5029522;28;19948;-96
2022/08/25 01:12:36;;;;;;;;;;;21.00;82.00;;;;;;5029539;28;20058;-96
2022/08/25 01:15:03;;;;;;;;;;;21.00;82.00;;;;;;5048163;28;19943;-96
2022/08/25 01:17:33;;;;;;;;;;;21.00;81.90;;;;;;5030175;28;19947;-96
2022/08/25 01:19:59;;;;;;;;;;;21.00;82.10;;;;;;5029787;28;20001;-96
2022/08/25 01:22:25;;;;;;;;;;;20.80;82.60;;;;;;5049464;28;19937;-96
2022/08/25 01:25:06;;;;;;;;;;;20.80;83.00;;;;;;5046727;28;19946;-96
2022/08/25 01:27:32;;;;;;;;;;;20.70;83.30;;;;;;5045941;28;19975;-96
2022/08/25 01:29:58;;;;;;;;;;;20.70;82.60;;;;;;5046639;28;19942;-96
2022/08/25 01:32:23;;;;;;;;;;;20.60;81.70;;;;;;5027336;28;19965;-96
2022/08/25 01:34:49;;;;;;;;;;;20.70;81.00;;;;;;5029237;28;19993;-96
2022/08/25 01:37:18;;;;;;;;;;;20.80;80.60;;;;;;5027034;28;19959;-96
2022/08/25 01:39:43;;;;;;;;;;;20.90;80.20;;;;;;5028274;28;19941;-96
2022/08/25 01:42:17;;;;;;;;;;;20.90;79.80;;;;;;5046109;28;19945;-96
2022/08/25 01:44:44;;;;;;;;;;;20.90;79.70;;;;;;5046848;28;19967;-96
2022/08/25 01:47:11;;;;;;;;;;;21.00;79.90;;;;;;5031294;28;19943;-96
2022/08/25 01:49:36;;;;;;;;;;;20.90;80.90;;;;;;5049093;28;20438;-96
2022/08/25 01:52:18;;;;;;;;;;;20.90;80.80;;;;;;5048570;28;19944;-96
2022/08/25 01:54:44;;;;;;;;;;;20.90;80.30;;;;;;5030562;28;19955;-96
2022/08/25 01:57:10;;;;;;;;;;;21.10;79.50;;;;;;5031040;28;19944;-96
2022/08/25 01:59:36;;;;;;;;;;;21.00;79.30;;;;;;5030731;28;19951;-96
2022/08/25 02:02:02;;;;;;;;;;;21.00;79.50;;;;;;5028513;28;20030;-96
2022/08/25 02:04:30;;;;;;;;;;;21.00;79.60;;;;;;5045464;28;19941;-96
2022/08/25 02:06:56;;;;;;;;;;;21.00;80.00;;;;;;5025268;28;19953;-96
2022/08/25 02:09:23;;;;;;;;;;;21.00;80.40;;;;;;5043884;28;19942;-96
2022/08/25 02:11:49;;;;;;;;;;;21.00;80.80;;;;;;5025460;28;19941;-96
2022/08/25 02:14:16;;;;;;;;;;;20.90;81.60;;;;;;5043575;28;19957;-95
2022/08/25 02:16:45;;;;;;;;;;;20.80;81.20;;;;;;5043369;28;19941;-96
2022/08/25 02:19:11;;;;;;;;;;;20.80;81.10;;;;;;5042818;28;20015;-96
2022/08/25 02:21:37;;;;;;;;;;;20.80;81.30;;;;;;5041930;28;20006;-96
2022/08/25 02:24:02;;;;;;;;;;;20.70;81.70;;;;;;5024122;28;19968;-96
2022/08/25 02:26:28;;;;;;;;;;;20.70;81.90;;;;;;5042271;28;19988;-96
2022/08/25 02:28:54;;;;;;;;;;;20.70;82.10;;;;;;5040942;28;20047;-96
2022/08/25 02:31:21;;;;;;;;;;;20.50;82.30;;;;;;5041932;28;20402;-96
2022/08/25 02:33:47;;;;;;;;;;;20.50;82.60;;;;;;5041388;28;19960;-96
2022/08/25 02:36:13;;;;;;;;;;;20.40;82.80;;;;;;5042530;28;20007;-96
2022/08/25 02:38:39;;;;;;;;;;;20.40;82.80;;;;;;5025164;28;19947;-95
2022/08/25 02:41:15;;;;;;;;;;;20.40;82.60;;;;;;5042394;28;20309;-96
2022/08/25 02:43:42;;;;;;;;;;;20.40;82.60;;;;;;5042565;28;19945;-96
2022/08/25 02:46:08;;;;;;;;;;;20.50;82.90;;;;;;5042310;28;19948;-96
2022/08/25 02:48:34;;;;;;;;;;;20.40;82.60;;;;;;5034543;28;20346;-96
2022/08/25 02:51:01;;;;;;;;;;;20.40;82.60;;;;;;5045054;28;19943;-96
2022/08/25 02:53:27;;;;;;;;;;;20.30;82.80;;;;;;5062839;28;19964;-96
2022/08/25 02:55:53;;;;;;;;;;;20.30;83.10;;;;;;5062835;28;20013;-96
2022/08/25 02:58:19;;;;;;;;;;;20.30;83.20;;;;;;5062444;28;19946;-96
2022/08/25 03:00:45;;;;;;;;;;;20.20;83.40;;;;;;5062549;28;20341;-96
2022/08/25 03:03:11;;;;;;;;;;;20.20;83.50;;;;;;5045614;28;20034;-96
2022/08/25 03:05:36;;;;;;;;;;;20.30;83.30;;;;;;5063973;28;19940;-96
2022/08/25 03:08:03;;;;;;;;;;;20.30;83.10;;;;;;5063983;28;20013;-96
2022/08/25 03:10:29;;;;;;;;;;;20.30;83.00;;;;;;5045249;28;19951;-96
2022/08/25 03:12:54;;;;;;;;;;;20.40;82.70;;;;;;5062730;28;19961;-96
2022/08/25 03:15:20;;;;;;;;;;;20.40;82.70;;;;;;5062959;28;19980;-96
2022/08/25 03:17:48;;;;;;;;;;;20.50;82.80;;;;;;5063598;28;19944;-96
2022/08/25 03:20:14;;;;;;;;;;;20.30;83.00;;;;;;5045464;28;19942;-96
2022/08/25 03:22:40;;;;;;;;;;;20.30;83.20;;;;;;5048758;28;19950;-95
2022/08/25 03:27:52;;;;;;;;;;;20.10;83.70;;;;;;5057303;28;19971;-96
2022/08/25 03:30:18;;;;;;;;;;;20.00;84.10;;;;;;5068526;28;19939;-96
2022/08/25 03:32:44;;;;;;;;;;;20.00;84.50;;;;;;5068142;28;19972;-96
2022/08/25 03:35:09;;;;;;;;;;;19.80;84.70;;;;;;5050469;28;19942;-96
2022/08/25 03:37:36;;;;;;;;;;;19.90;84.60;;;;;;5047734;28;19964;-96
2022/08/25 03:40:05;;;;;;;;;;;19.90;84.50;;;;;;5065525;28;19963;-96
2022/08/25 03:42:31;;;;;;;;;;;20.00;84.20;;;;;;5047062;28;19954;-96
2022/08/25 03:44:57;;;;;;;;;;;20.00;84.10;;;;;;5064643;28;19941;-96
2022/08/25 03:47:25;;;;;;;;;;;20.00;84.10;;;;;;5046230;28;20398;-96
2022/08/25 03:49:50;;;;;;;;;;;19.90;84.30;;;;;;5045555;28;19976;-96
2022/08/25 03:52:17;;;;;;;;;;;19.80;84.40;;;;;;5063391;28;19941;-96
2022/08/25 03:54:43;;;;;;;;;;;19.70;84.60;;;;;;5063422;28;20397;-96
2022/08/25 03:57:08;;;;;;;;;;;19.60;85.00;;;;;;5062291;28;19936;-96
2022/08/25 03:59:37;;;;;;;;;;;19.60;85.30;;;;;;5062674;28;19933;-95
2022/08/25 04:02:02;;;;;;;;;;;19.60;85.40;;;;;;5062604;28;20377;-96
2022/08/25 04:04:28;;;;;;;;;;;19.60;85.40;;;;;;5062682;28;19945;-96
2022/08/25 04:06:54;;;;;;;;;;;19.60;85.30;;;;;;5061814;28;19941;-96
2022/08/25 04:09:19;;;;;;;;;;;19.60;85.10;;;;;;5060478;28;19942;-96
2022/08/25 04:11:45;;;;;;;;;;;19.70;85.10;;;;;;5060784;28;19939;-96
2022/08/25 04:14:12;;;;;;;;;;;19.70;85.20;;;;;;5063258;28;19959;-96
2022/08/25 04:16:37;;;;;;;;;;;19.70;85.20;;;;;;5066270;28;19987;-96
2022/08/25 04:19:06;;;;;;;;;;;19.70;84.70;;;;;;5066605;28;19944;-96
2022/08/25 04:21:32;;;;;;;;;;;19.70;84.50;;;;;;5066548;28;19942;-96
2022/08/25 04:23:58;;;;;;;;;;;19.80;84.10;;;;;;5047877;28;20465;-96
2022/08/25 04:26:25;;;;;;;;;;;19.90;83.90;;;;;;5046211;28;19987;-96
2022/08/25 04:28:52;;;;;;;;;;;19.90;84.10;;;;;;5049501;28;19972;-96
2022/08/25 04:31:19;;;;;;;;;;;19.90;84.00;;;;;;5050117;28;19940;-96
2022/08/25 04:33:48;;;;;;;;;;;19.90;83.80;;;;;;5068245;28;19964;-96
2022/08/25 04:36:14;;;;;;;;;;;19.80;83.70;;;;;;5049658;28;19960;-96
2022/08/25 04:38:41;;;;;;;;;;;19.80;83.90;;;;;;5066107;28;19995;-96
2022/08/25 04:41:08;;;;;;;;;;;19.80;83.90;;;;;;5051541;28;19954;-96
2022/08/25 04:43:34;;;;;;;;;;;19.90;83.90;;;;;;5070844;28;19947;-96
2022/08/25 04:46:05;;;;;;;;;;;19.90;83.50;;;;;;5070660;28;19938;-96
2022/08/25 04:48:31;;;;;;;;;;;19.90;83.40;;;;;;5050032;28;20031;-96
2022/08/25 04:50:57;;;;;;;;;;;19.90;83.20;;;;;;5051359;28;19947;-96
2022/08/25 04:53:23;;;;;;;;;;;19.90;83.60;;;;;;5049287;28;20315;-96
2022/08/25 04:55:48;;;;;;;;;;;19.90;83.70;;;;;;5047445;28;19944;-96
2022/08/25 04:58:15;;;;;;;;;;;19.90;83.60;;;;;;5050198;28;19945;-96
2022/08/25 05:00:41;;;;;;;;;;;19.90;83.20;;;;;;5051122;28;19937;-96
2022/08/25 05:03:07;;;;;;;;;;;19.90;83.00;;;;;;5050088;28;19937;-96
2022/08/25 05:05:35;;;;;;;;;;;20.00;82.60;;;;;;5044890;28;19941;-96
2022/08/25 05:08:01;;;;;;;;;;;20.00;82.70;;;;;;5046790;28;20397;-96
2022/08/25 05:10:27;;;;;;;;;;;20.10;82.40;;;;;;5047202;28;19952;-96
2022/08/25 05:12:52;;;;;;;;;;;20.10;81.70;;;;;;5047847;28;19963;-96
2022/08/25 05:18:02;;;;;;;;;;;20.30;81.70;;;;;;5045535;28;20022;-96
2022/08/25 05:20:29;;;;;;;;;;;20.50;81.10;;;;;;5043379;28;19976;-96
2022/08/25 05:22:55;;;;;;;;;;;20.60;81.30;;;;;;5042546;28;19945;-96
2022/08/25 05:25:21;;;;;;;;;;;20.60;80.70;;;;;;5043607;28;20036;-96
2022/08/25 05:27:47;;;;;;;;;;;20.70;80.60;;;;;;5042628;28;20406;-96
2022/08/25 05:30:13;;;;;;;;;;;20.70;80.90;;;;;;5044766;28;19934;-96
2022/08/25 05:32:38;;;;;;;;;;;20.70;81.30;;;;;;5046130;28;20098;-96
2022/08/25 05:35:05;;;;;;;;;;;20.70;81.20;;;;;;5046254;28;19940;-96
2022/08/25 05:37:32;;;;;;;;;;;20.80;81.20;;;;;;5045503;28;19965;-96
2022/08/25 05:39:57;;;;;;;;;;;20.80;81.10;;;;;;5044087;28;19946;-96
2022/08/25 05:42:23;;;;;;;;;;;20.80;80.80;;;;;;5041035;28;19942;-96
2022/08/25 05:44:49;;;;;;;;;;;20.80;80.90;;;;;;5043286;28;19944;-96
2022/08/25 05:47:15;;;;;;;;;;;20.90;81.20;;;;;;5043459;28;19946;-96
2022/08/25 05:49:41;;;;;;;;;;;21.00;80.50;;;;;;5041462;28;19976;-96
2022/08/25 05:52:06;;;;;;;;;;;21.00;79.80;;;;;;5039570;28;19990;-96
2022/08/25 05:54:32;;;;;;;;;;;21.20;79.00;;;;;;5039911;28;20374;-96
2022/08/25 05:56:58;;;;;;;;;;;21.30;78.50;;;;;;5022886;28;19986;-96
2022/08/25 05:59:23;;;;;;;;;;;21.30;78.50;;;;;;5021901;28;19941;-96
2022/08/25 06:04:33;;;;;;;;;;;21.70;78.50;;;;;;5039468;28;19945;-96
2022/08/25 06:07:01;;;;;;;;;;;21.80;77.70;;;;;;5038673;28;20343;-96
2022/08/25 06:09:26;;;;;;;;;;;22.00;76.40;;;;;;5041571;28;19945;-96
2022/08/25 06:11:52;;;;;;;;;;;22.20;75.70;;;;;;5041506;28;19942;-96
2022/08/25 06:14:18;;;;;;;;;;;22.20;75.80;;;;;;5021424;28;20434;-96
2022/08/25 06:16:44;;;;;;;;;;;22.30;75.20;;;;;;5039670;28;19962;-96
2022/08/25 06:19:10;;;;;;;;;;;22.30;75.10;;;;;;5038393;28;20401;-96
2022/08/25 06:21:38;;;;;;;;;;;22.40;73.70;;;;;;5038560;28;20091;-96
2022/08/25 06:24:04;;;;;;;;;;;22.50;74.00;;;;;;5038740;28;19938;-96
2022/08/25 06:26:30;;;;;;;;;;;22.60;73.80;;;;;;5037709;28;19959;-96
2022/08/25 06:28:55;;;;;;;;;;;22.60;74.00;;;;;;5036584;28;19944;-96
2022/08/25 06:31:21;;;;;;;;;;;22.80;73.60;;;;;;5037336;28;19989;-96
2022/08/25 06:33:47;;;;;;;;;;;22.80;73.20;;;;;;5036328;28;19960;-96
2022/08/25 06:36:14;;;;;;;;;;;22.90;72.40;;;;;;5036914;28;20113;-96
2022/08/25 06:38:39;;;;;;;;;;;23.00;72.40;;;;;;5038926;28;19995;-96
2022/08/25 06:41:09;;;;;;;;;;;23.10;71.00;;;;;;5048136;28;19947;-96
2022/08/25 06:43:36;;;;;;;;;;;23.20;71.70;;;;;;5033625;28;19944;-96
2022/08/25 06:46:10;;;;;;;;;;;23.30;71.40;;;;;;5034087;28;19950;-96
2022/08/25 06:48:36;;;;;;;;;;;23.40;71.40;;;;;;5042722;28;20006;-96
2022/08/25 06:51:10;;;;;;;;;;;23.50;70.10;;;;;;5070428;28;19990;-96
2022/08/25 06:53:36;;;;;;;;;;;23.60;70.10;;;;;;5066372;28;19957;-96
2022/08/25 06:56:03;;;;;;;;;;;23.80;70.00;;;;;;5070232;28;19944;-96
2022/08/25 06:58:32;;;;;;;;;;;23.90;70.10;;;;;;5052786;28;19939;-96
2022/08/25 07:01:10;;;;;;;;;;;24.10;68.10;;;;;;5051623;28;19945;-96
2022/08/25 07:03:37;;;;;;;;;;;24.30;67.30;;;;;;5069859;28;19940;-96
2022/08/25 07:06:03;;;;;;;;;;;24.50;67.10;;;;;;5052400;28;19999;-96
2022/08/25 07:08:31;;;;;;;;;;;24.60;66.30;;;;;;5071350;28;19941;-96
2022/08/25 07:10:58;;;;;;;;;;;24.70;65.90;;;;;;5054760;28;19993;-96
2022/08/25 07:13:24;;;;;;;;;;;24.80;66.80;;;;;;5071364;28;19956;-96
2022/08/25 07:15:56;;;;;;;;;;;24.80;67.40;;;;;;5072602;28;19947;-96
2022/08/25 07:18:22;;;;;;;;;;;24.80;67.00;;;;;;5054049;28;19944;-96
2022/08/25 07:20:48;;;;;;;;;;;24.80;67.80;;;;;;5054647;28;19977;-96
2022/08/25 07:23:18;;;;;;;;;;;24.80;65.90;;;;;;5075447;28;19944;-96
2022/08/25 07:25:48;;;;;;;;;;;24.90;65.80;;;;;;5041105;28;19956;-96
2022/08/25 07:28:19;;;;;;;;;;;25.00;66.50;;;;;;5075748;28;20047;-96
2022/08/25 07:30:50;;;;;;;;;;;25.00;65.30;;;;;;5057482;28;19941;-96
2022/08/25 07:33:16;;;;;;;;;;;25.10;65.90;;;;;;5057269;28;19987;-96
2022/08/25 07:35:42;;;;;;;;;;;25.20;67.00;;;;;;5073945;28;19945;-96
2022/08/25 07:38:11;;;;;;;;;;;25.30;67.50;;;;;;5045802;28;19950;-96
2022/08/25 07:40:38;;;;;;;;;;;25.40;64.90;;;;;;5056802;28;19947;-96
2022/08/25 07:43:07;;;;;;;;;;;25.40;65.60;;;;;;5051952;28;19954;-96
2022/08/25 07:45:33;;;;;;;;;;;25.50;64.80;;;;;;5052921;28;19947;-96
2022/08/25 07:48:00;;;;;;;;;;;25.70;64.80;;;;;;5213226;22;20431;-96
2022/08/25 07:50:27;;;;;;;;;;;25.80;64.40;;;;;;5086660;28;19948;-96
2022/08/25 07:52:53;;;;;;;;;;;25.80;65.00;;;;;;5084358;28;19960;-96
2022/08/25 07:55:19;;;;;;;;;;;25.80;64.50;;;;;;5084301;28;19944;-96
2022/08/25 07:57:46;;;;;;;;;;;25.90;64.50;;;;;;5084338;28;19945;-96
2022/08/25 08:00:13;;;;;;;;;;;26.10;63.40;;;;;;5068430;28;19940;-96
2022/08/25 08:02:40;;;;;;;;;;;26.10;63.90;;;;;;5089861;28;19960;-96
2022/08/25 08:05:06;;;;;;;;;;;26.20;63.20;;;;;;5070005;28;20301;-96
2022/08/25 08:07:34;;;;;;;;;;;26.20;62.40;;;;;;5089492;28;19988;-96
2022/08/25 08:10:00;;;;;;;;;;;26.20;62.70;;;;;;5073955;28;19935;-96
2022/08/25 08:12:26;;;;;;;;;;;26.20;61.80;;;;;;5083688;28;20003;-96
2022/08/25 08:14:54;;;;;;;;;;;26.30;61.70;;;;;;5089154;28;19969;-95
2022/08/25 08:17:31;;;;;;;;;;;26.30;60.90;;;;;;5100867;28;19937;-96
2022/08/25 08:19:57;;;;;;;;;;;26.40;61.00;;;;;;5077655;28;19949;-96
2022/08/25 08:22:23;;;;;;;;;;;26.40;60.10;;;;;;5088726;28;19942;-96
2022/08/25 08:24:49;;;;;;;;;;;26.50;60.40;;;;;;5089496;28;19941;-96
2022/08/25 08:27:15;;;;;;;;;;;26.50;59.10;;;;;;5071714;28;19949;-96
2022/08/25 08:29:41;;;;;;;;;;;26.60;59.90;;;;;;5089031;28;19941;-96
2022/08/25 08:32:09;;;;;;;;;;;26.60;60.60;;;;;;5092935;28;19986;-96
2022/08/25 08:34:35;;;;;;;;;;;26.70;59.80;;;;;;5073291;28;19965;-96
2022/08/25 08:37:02;;;;;;;;;;;26.70;60.10;;;;;;5093197;28;19936;-96
2022/08/25 08:39:28;;;;;;;;;;;26.80;60.20;;;;;;5093648;28;19961;-96
2022/08/25 08:42:15;;;;;;;;;;;26.90;58.80;;;;;;5071675;28;19971;-96
2022/08/25 08:44:44;;;;;;;;;;;26.90;60.00;;;;;;5073608;28;19941;-96
2022/08/25 08:47:28;;;;;;;;;;;26.90;58.90;;;;;;5071975;28;19965;-96
2022/08/25 08:49:54;;;;;;;;;;;27.00;59.10;;;;;;5091253;28;19974;-96
2022/08/25 08:52:23;;;;;;;;;;;27.10;59.20;;;;;;5093055;28;20020;-96
2022/08/25 08:54:55;;;;;;;;;;;27.20;60.00;;;;;;5078557;28;20395;-96
2022/08/25 08:57:23;;;;;;;;;;;27.20;59.90;;;;;;5076831;28;19942;-96
2022/08/25 09:00:00;;;;;;;;;;;27.30;58.80;;;;;;5075334;28;19943;-96
2022/08/25 09:02:32;;;;;;;;;;;27.30;59.20;;;;;;5092194;28;19948;-96
2022/08/25 09:05:00;;;;;;;;;;;27.40;58.60;;;;;;5095730;28;19948;-96
2022/08/25 09:07:45;;;;;;;;;;;27.50;58.80;;;;;;5079701;28;19958;-96
2022/08/25 09:10:12;;;;;;;;;;;27.70;58.70;;;;;;5079426;28;19962;-96
2022/08/25 09:12:53;;;;;;;;;;;27.70;57.50;;;;;;5079485;28;19962;-96
2022/08/25 09:16:53;;;;;;;;;;;27.80;57.80;;;;;;5080067;28;19947;-96
2022/08/25 09:18:33;;;;;;;;;;;27.80;56.80;;;;;;5095461;28;19969;-96
2022/08/25 09:21:03;;;;;;;;;;;28.00;57.40;;;;;;5075273;28;20034;-96
2022/08/25 09:23:28;;;;;;;;;;;27.90;56.90;;;;;;5093490;28;19946;-96
2022/08/25 09:26:02;;;;;;;;;;;28.00;57.70;;;;;;5094015;28;19994;-96
2022/08/25 09:28:28;;;;;;;;;;;28.20;57.00;;;;;;5096243;28;19942;-96
2022/08/25 09:30:58;;;;;;;;;;;28.30;56.20;;;;;;5075605;28;19960;-96
2022/08/25 09:33:25;;;;;;;;;;;28.30;56.90;;;;;;5093461;28;19969;-96
2022/08/25 09:35:53;;;;;;;;;;;28.40;56.20;;;;;;5093112;28;19959;-96
2022/08/25 09:38:19;;;;;;;;;;;28.40;55.90;;;;;;5073309;28;19951;-96
2022/08/25 09:40:46;;;;;;;;;;;28.50;55.70;;;;;;5091303;28;20014;-96
2022/08/25 09:43:18;;;;;;;;;;;28.60;56.00;;;;;;5091668;28;19948;-96
2022/08/25 09:45:46;;;;;;;;;;;28.70;56.30;;;;;;5089452;28;20036;-96
2022/08/25 09:48:37;;;;;;;;;;;28.80;55.80;;;;;;5089372;28;19970;-96
2022/08/25 09:51:09;;;;;;;;;;;28.80;52.90;;;;;;5070635;28;19947;-96
2022/08/25 09:53:36;;;;;;;;;;;28.80;51.20;;;;;;5068231;28;20014;-96
2022/08/25 09:56:04;;;;;;;;;;;28.70;52.50;;;;;;5090270;28;19939;-96
2022/08/25 09:58:33;;;;;;;;;;;28.70;52.60;;;;;;5073427;28;19945;-96
2022/08/25 10:01:05;;;;;;;;;;;28.70;53.00;;;;;;5071639;28;19945;-96
2022/08/25 10:03:31;;;;;;;;;;;28.80;52.90;;;;;;5091001;28;19940;-96
2022/08/25 10:06:04;;;;;;;;;;;28.90;52.30;;;;;;5073741;28;19940;-96
2022/08/25 10:08:40;;;;;;;;;;;29.00;52.50;;;;;;5073198;28;19969;-96
2022/08/25 10:11:08;;;;;;;;;;;29.00;52.00;;;;;;5072798;28;19944;-96
2022/08/25 10:13:38;;;;;;;;;;;29.00;52.60;;;;;;5071134;28;19973;-96
2022/08/25 10:16:06;;;;;;;;;;;29.10;48.00;;;;;;5092764;28;20037;-96
2022/08/25 10:18:31;;;;;;;;;;;29.00;47.50;;;;;;5071263;28;19940;-96
2022/08/25 10:21:11;;;;;;;;;;;29.00;47.70;;;;;;5088195;28;19952;-96
2022/08/25 10:23:55;;;;;;;;;;;29.10;48.10;;;;;;5088072;28;19939;-96
2022/08/25 10:26:38;;;;;;;;;;;29.00;47.40;;;;;;5088836;28;19942;-96
2022/08/25 10:29:09;;;;;;;;;;;29.10;48.70;;;;;;5071707;28;19998;-96
2022/08/25 10:31:43;;;;;;;;;;;29.10;48.60;;;;;;5087111;28;19938;-96
2022/08/25 10:34:33;;;;;;;;;;;29.40;49.20;;;;;;5086671;28;19961;-96
2022/08/25 10:37:05;;;;;;;;;;;29.40;48.30;;;;;;5044140;28;20008;-96
2022/08/25 10:39:54;;;;;;;;;;;29.30;48.00;;;;;;5086923;28;19992;-96
2022/08/25 10:42:33;;;;;;;;;;;29.40;48.90;;;;;;5071602;28;20026;-96
2022/08/25 10:48:11;;;;;;;;;;;29.40;48.50;;;;;;5085933;28;20403;-96
2022/08/25 10:50:37;;;;;;;;;;;29.60;48.40;;;;;;5086662;28;19945;-96
2022/08/25 10:53:03;;;;;;;;;;;29.50;49.00;;;;;;5086813;28;19992;-96
2022/08/25 10:55:47;;;;;;;;;;;29.60;48.90;;;;;;5070607;28;19962;-96
2022/08/25 10:58:13;;;;;;;;;;;29.60;47.60;;;;;;5088706;28;19980;-96
2022/08/25 11:00:54;;;;;;;;;;;29.70;48.70;;;;;;5070955;28;19940;-96
2022/08/25 11:03:43;;;;;;;;;;;29.80;48.30;;;;;;5091475;28;19942;-96
2022/08/25 11:06:17;;;;;;;;;;;29.90;48.00;;;;;;5073681;28;19948;-96
2022/08/25 11:08:57;;;;;;;;;;;30.00;49.30;;;;;;5089861;28;19982;-96
2022/08/25 11:11:23;;;;;;;;;;;30.20;50.70;;;;;;5071304;28;20008;-96
2022/08/25 11:14:04;;;;;;;;;;;30.60;49.30;;;;;;5089090;28;20032;-96
2022/08/25 11:16:38;;;;;;;;;;;30.40;47.60;;;;;;5086779;28;19935;-96
2022/08/25 11:19:10;;;;;;;;;;;30.40;47.70;;;;;;5087075;28;20009;-96
2022/08/25 11:21:41;;;;;;;;;;;30.50;46.60;;;;;;5086153;28;19962;-97
2022/08/25 11:24:10;;;;;;;;;;;30.50;47.10;;;;;;5087876;28;19945;-96
2022/08/25 11:26:36;;;;;;;;;;;30.80;48.80;;;;;;5069798;28;19959;-96
2022/08/25 11:29:12;;;;;;;;;;;30.90;46.20;;;;;;5086989;28;19942;-96
2022/08/25 11:31:41;;;;;;;;;;;30.70;46.50;;;;;;5090214;28;19943;-96
2022/08/25 11:34:14;;;;;;;;;;;30.70;46.60;;;;;;5073626;28;19962;-96
2022/08/25 11:36:43;;;;;;;;;;;30.80;47.50;;;;;;5074547;28;19963;-96
2022/08/25 11:39:17;;;;;;;;;;;30.90;46.70;;;;;;5076798;28;19980;-96
2022/08/25 11:41:49;;;;;;;;;;;31.10;46.00;;;;;;5077067;28;19994;-96
2022/08/25 11:44:33;;;;;;;;;;;31.30;45.60;;;;;;5095328;28;19948;-96
2022/08/25 11:46:59;;;;;;;;;;;31.70;45.30;;;;;;5076199;28;19984;-96
2022/08/25 11:49:25;;;;;;;;;;;31.70;45.00;;;;;;5075941;28;19982;-96
2022/08/25 11:51:53;;;;;;;;;;;31.90;44.20;;;;;;5095593;28;19937;-96
2022/08/25 11:54:29;;;;;;;;;;;31.50;44.30;;;;;;5096176;28;19990;-96
2022/08/25 11:57:03;;;;;;;;;;;31.50;44.60;;;;;;5075831;28;19973;-96
2022/08/25 11:59:47;;;;;;;;;;;31.70;43.70;;;;;;5080270;28;19946;-96
2022/08/25 12:02:35;;;;;;;;;;;32.00;44.30;;;;;;5097484;28;19938;-96
2022/08/25 12:05:04;;;;;;;;;;;31.90;44.30;;;;;;5080224;28;20011;-96
2022/08/25 12:08:37;;;;;;;;;;;31.70;45.20;;;;;;5089948;28;19942;-96
2022/08/25 12:10:56;;;;;;;;;;;32.10;44.20;;;;;;5086331;28;19988;-96
2022/08/25 12:13:40;;;;;;;;;;;32.00;43.40;;;;;;5065426;28;20064;-96
2022/08/25 12:16:06;;;;;;;;;;;32.10;44.20;;;;;;5084642;28;19940;-96
2022/08/25 12:18:32;;;;;;;;;;;32.20;42.70;;;;;;5080156;28;19978;-96
2022/08/25 12:20:58;;;;;;;;;;;32.50;45.50;;;;;;5085408;28;19941;-96
2022/08/25 12:23:38;;;;;;;;;;;32.80;43.00;;;;;;5086187;28;19939;-96
2022/08/25 12:26:26;;;;;;;;;;;33.00;44.30;;;;;;5085539;28;20349;-96
2022/08/25 12:29:09;;;;;;;;;;;33.10;41.80;;;;;;5031797;28;19969;-96
2022/08/25 12:31:41;;;;;;;;;;;33.00;43.10;;;;;;5086606;28;19934;-96
2022/08/25 12:34:14;;;;;;;;;;;33.20;43.00;;;;;;5085642;28;19956;-96
2022/08/25 12:36:54;;;;;;;;;;;33.40;42.30;;;;;;5085840;28;19966;-96
2022/08/25 12:39:22;;;;;;;;;;;33.60;40.70;;;;;;5067166;28;19946;-96
2022/08/25 12:41:52;;;;;;;;;;;33.70;41.60;;;;;;5084369;28;19936;-96
2022/08/25 12:44:38;;;;;;;;;;;34.00;39.50;;;;;;5083780;28;19979;-96
2022/08/25 12:47:06;;;;;;;;;;;34.70;38.90;;;;;;5081269;28;19942;-96
2022/08/25 12:49:34;;;;;;;;;;;35.60;38.20;;;;;;5082139;28;20078;-96
2022/08/25 12:52:03;;;;;;;;;;;36.50;35.30;;;;;;5081372;28;20300;-96
2022/08/25 12:54:38;;;;;;;;;;;36.90;34.20;;;;;;5081051;28;20369;-96
2022/08/25 12:57:25;;;;;;;;;;;36.50;34.40;;;;;;5062803;28;19939;-96
2022/08/25 12:59:56;;;;;;;;;;;37.20;34.80;;;;;;5081467;28;19944;-96
2022/08/25 13:02:21;;;;;;;;;;;37.60;32.90;;;;;;5079859;28;20388;-96
2022/08/25 13:04:56;;;;;;;;;;;36.70;36.20;;;;;;5078840;28;19945;-96
2022/08/25 13:07:28;;;;;;;;;;;37.10;34.10;;;;;;5080002;28;20413;-96
2022/08/25 13:10:10;;;;;;;;;;;36.80;34.00;;;;;;5060112;28;20049;-96
2022/08/25 13:12:41;;;;;;;;;;;37.40;34.20;;;;;;5077628;28;19942;-96
2022/08/25 13:15:10;;;;;;;;;;;36.80;35.60;;;;;;5077325;28;19945;-96
2022/08/25 13:17:36;;;;;;;;;;;37.00;36.20;;;;;;5077251;28;20423;-96
2022/08/25 13:20:11;;;;;;;;;;;36.70;33.70;;;;;;5079199;28;19935;-96
2022/08/25 13:22:39;;;;;;;;;;;38.10;32.90;;;;;;5078650;28;19937;-96
2022/08/25 13:25:05;;;;;;;;;;;39.00;32.10;;;;;;5078137;28;20005;-96
2022/08/25 13:27:32;;;;;;;;;;;39.60;31.20;;;;;;5078399;28;20452;-96
2022/08/25 13:29:58;;;;;;;;;;;39.90;30.00;;;;;;5078026;28;19940;-96
2022/08/25 13:32:42;;;;;;;;;;;39.60;30.40;;;;;;5078170;28;19940;-96
2022/08/25 13:35:10;;;;;;;;;;;40.20;30.70;;;;;;5078208;28;19948;-96
2022/08/25 13:37:36;;;;;;;;;;;39.50;29.40;;;;;;5060025;28;20398;-96
2022/08/25 13:40:15;;;;;;;;;;;39.80;30.90;;;;;;5077639;28;19972;-96
2022/08/25 13:42:42;;;;;;;;;;;39.30;30.40;;;;;;5078769;28;19941;-96
2022/08/25 13:45:09;;;;;;;;;;;38.90;31.10;;;;;;5077941;28;20379;-96
2022/08/25 13:47:37;;;;;;;;;;;39.40;31.10;;;;;;5077277;28;20307;-96
2022/08/25 13:50:15;;;;;;;;;;;39.20;30.60;;;;;;5077602;28;20442;-96
2022/08/25 13:52:43;;;;;;;;;;;38.90;31.10;;;;;;5077650;28;20356;-96
2022/08/25 13:55:09;;;;;;;;;;;38.70;31.20;;;;;;5077520;28;19939;-96
2022/08/25 13:57:35;;;;;;;;;;;39.00;31.40;;;;;;5077080;28;19939;-96
2022/08/25 14:00:03;;;;;;;;;;;38.60;33.00;;;;;;5060634;28;19941;-96
2022/08/25 14:02:48;;;;;;;;;;;37.70;32.10;;;;;;5078491;28;20004;-96
2022/08/25 14:05:18;;;;;;;;;;;37.80;32.80;;;;;;5061507;28;19948;-96
2022/08/25 14:07:55;;;;;;;;;;;38.80;31.40;;;;;;5060923;28;19946;-96
2022/08/25 14:10:41;;;;;;;;;;;37.90;31.50;;;;;;5077782;28;20032;-96
2022/08/25 14:13:09;;;;;;;;;;;37.30;32.20;;;;;;5061322;28;19965;-96
2022/08/25 14:15:37;;;;;;;;;;;37.70;32.40;;;;;;5079442;28;19944;-96
2022/08/25 14:18:02;;;;;;;;;;;39.30;30.60;;;;;;5080541;28;20040;-96
2022/08/25 14:20:30;;;;;;;;;;;39.70;30.70;;;;;;5078956;28;20094;-96
2022/08/25 14:22:57;;;;;;;;;;;40.60;29.70;;;;;;5078028;28;19965;-96
2022/08/25 14:25:23;;;;;;;;;;;40.70;28.90;;;;;;5076615;28;19936;-96
2022/08/25 14:27:56;;;;;;;;;;;40.50;27.80;;;;;;5078652;28;20404;-96
2022/08/25 14:30:22;;;;;;;;;;;39.10;29.60;;;;;;5080577;28;20397;-96
2022/08/25 14:32:47;;;;;;;;;;;37.90;31.20;;;;;;5062320;28;19953;-96
2022/08/25 14:35:13;;;;;;;;;;;37.80;31.80;;;;;;5079897;28;20344;-96
2022/08/25 14:37:38;;;;;;;;;;;37.90;32.20;;;;;;5061577;28;19969;-96
2022/08/25 14:40:04;;;;;;;;;;;38.60;31.60;;;;;;5078234;28;20320;-96